createdAt,value
2018-04-26T00:00:59.096Z,12.98
2018-04-26T00:03:27.204Z,13.05
2018-04-26T00:05:55.335Z,12.72
2018-04-26T00:08:23.489Z,12.77
2018-04-26T00:10:51.643Z,12.79
2018-04-26T00:13:19.747Z,12.83
2018-04-26T00:15:47.905Z,12.81
2018-04-26T00:18:16.021Z,12.80
2018-04-26T00:20:44.165Z,12.56
2018-04-26T00:23:12.308Z,12.79
2018-04-26T00:25:40.414Z,12.76
2018-04-26T00:28:08.550Z,12.70
2018-04-26T00:30:36.695Z,12.55
2018-04-26T00:33:04.823Z,12.54
2018-04-26T00:35:32.955Z,12.33
2018-04-26T00:38:01.121Z,12.53
2018-04-26T00:40:29.261Z,12.48
2018-04-26T00:42:57.788Z,12.51
2018-04-26T00:45:25.916Z,12.58
2018-04-26T00:47:54.084Z,12.45
2018-04-26T00:50:22.166Z,12.52
2018-04-26T00:52:50.332Z,12.54
2018-04-26T00:55:18.465Z,12.38
2018-04-26T00:57:46.616Z,12.51
2018-04-26T01:00:14.752Z,12.56
2018-04-26T01:02:42.895Z,12.67
2018-04-26T01:05:11.036Z,12.35
2018-04-26T01:07:39.173Z,12.51
2018-04-26T01:10:07.304Z,12.29
2018-04-26T01:12:35.438Z,12.27
2018-04-26T01:15:03.591Z,11.99
2018-04-26T01:17:31.784Z,12.25
2018-04-26T01:20:00.026Z,12.23
2018-04-26T01:22:28.151Z,12.34
2018-04-26T01:24:56.292Z,12.28
2018-04-26T01:27:24.427Z,12.00
2018-04-26T01:29:52.573Z,12.03
2018-04-26T01:32:20.698Z,12.10
2018-04-26T01:34:48.819Z,12.30
2018-04-26T01:37:28.673Z,12.37
2018-04-26T01:39:56.824Z,12.17
2018-04-26T01:42:24.947Z,12.21
2018-04-26T01:44:53.091Z,12.02
2018-04-26T01:47:21.221Z,12.11
2018-04-26T01:49:49.334Z,11.92
2018-04-26T01:52:17.460Z,12.05
2018-04-26T01:54:45.616Z,12.13
2018-04-26T01:57:13.725Z,12.06
2018-04-26T01:59:42.035Z,12.03
2018-04-26T02:02:10.158Z,12.30
2018-04-26T02:04:38.287Z,12.27
2018-04-26T02:07:06.410Z,12.38
2018-04-26T02:09:34.547Z,12.07
2018-04-26T02:12:02.701Z,12.31
2018-04-26T02:14:30.840Z,12.18
2018-04-26T02:16:58.984Z,12.12
2018-04-26T02:19:27.106Z,12.16
2018-04-26T02:21:55.248Z,11.85
2018-04-26T02:24:23.367Z,11.90
2018-04-26T02:26:51.499Z,12.28
2018-04-26T02:29:19.647Z,12.07
2018-04-26T02:31:47.775Z,12.05
2018-04-26T02:34:15.888Z,11.99
2018-04-26T02:36:44.070Z,11.96
2018-04-26T02:39:12.183Z,12.17
2018-04-26T02:41:40.304Z,12.25
2018-04-26T02:44:08.445Z,12.20
2018-04-26T02:46:36.557Z,11.81
2018-04-26T02:49:04.705Z,12.10
2018-04-26T02:51:32.841Z,12.24
2018-04-26T02:54:01.015Z,12.20
2018-04-26T02:56:29.128Z,12.28
2018-04-26T02:58:57.257Z,11.96
2018-04-26T03:01:25.389Z,11.90
2018-04-26T03:03:53.609Z,12.18
2018-04-26T03:06:21.976Z,11.63
2018-04-26T03:08:50.092Z,11.63
2018-04-26T03:11:18.222Z,11.77
2018-04-26T03:13:46.372Z,11.84
2018-04-26T03:16:14.519Z,11.73
2018-04-26T03:18:42.654Z,11.70
2018-04-26T03:21:10.796Z,11.78
2018-04-26T03:23:38.908Z,11.41
2018-04-26T03:26:07.047Z,11.47
2018-04-26T03:28:35.184Z,11.55
2018-04-26T03:31:03.459Z,11.49
2018-04-26T03:33:31.497Z,11.43
2018-04-26T03:35:59.854Z,11.73
2018-04-26T03:38:28.005Z,11.77
2018-04-26T03:40:56.131Z,11.73
2018-04-26T03:43:24.260Z,11.88
2018-04-26T03:45:52.407Z,11.64
2018-04-26T03:48:20.533Z,11.63
2018-04-26T03:50:48.849Z,11.59
2018-04-26T03:53:16.991Z,11.72
2018-04-26T03:55:45.122Z,11.88
2018-04-26T03:58:13.274Z,11.83
2018-04-26T04:00:53.246Z,11.87
2018-04-26T04:03:33.306Z,12.12
2018-04-26T04:06:13.284Z,12.18
2018-04-26T04:08:41.438Z,11.98
2018-04-26T04:11:09.547Z,11.93
2018-04-26T04:13:37.697Z,11.93
2018-04-26T04:16:06.066Z,11.77
2018-04-26T04:18:34.217Z,12.06
2018-04-26T04:21:02.360Z,11.83
2018-04-26T04:23:30.485Z,12.05
2018-04-26T04:25:58.622Z,11.86
2018-04-26T04:28:26.766Z,11.74
2018-04-26T04:30:54.918Z,11.63
2018-04-26T04:33:23.055Z,11.61
2018-04-26T04:35:51.396Z,11.59
2018-04-26T04:38:19.544Z,11.78
2018-04-26T04:40:47.667Z,12.01
2018-04-26T04:43:15.784Z,12.14
2018-04-26T04:45:43.968Z,11.83
2018-04-26T04:48:12.100Z,11.65
2018-04-26T04:50:44.070Z,11.68
2018-04-26T04:53:12.239Z,11.80
2018-04-26T04:55:40.387Z,11.69
2018-04-26T04:58:08.524Z,11.54
2018-04-26T05:00:36.884Z,11.54
2018-04-26T05:03:05.006Z,11.44
2018-04-26T05:05:33.130Z,11.51
2018-04-26T05:08:01.286Z,11.62
2018-04-26T05:10:29.405Z,11.70
2018-04-26T05:12:57.656Z,11.87
2018-04-26T05:15:25.802Z,11.97
2018-04-26T05:17:53.938Z,11.70
2018-04-26T05:20:22.064Z,11.64
2018-04-26T05:22:50.217Z,11.42
2018-04-26T05:25:18.329Z,11.37
2018-04-26T05:27:46.467Z,11.14
2018-04-26T05:30:14.620Z,10.92
2018-04-26T05:32:42.770Z,10.94
2018-04-26T05:35:10.902Z,10.72
2018-04-26T05:37:39.036Z,10.10
2018-04-26T05:40:07.171Z,10.47
2018-04-26T05:42:35.324Z,11.56
2018-04-26T05:45:03.465Z,11.46
2018-04-26T05:47:31.582Z,10.91
2018-04-26T05:49:59.710Z,10.67
2018-04-26T05:52:27.836Z,10.69
2018-04-26T05:54:55.973Z,10.82
2018-04-26T05:57:24.113Z,10.91
2018-04-26T05:59:52.264Z,10.79
2018-04-26T06:02:20.408Z,10.86
2018-04-26T06:04:48.538Z,10.13
2018-04-26T06:07:16.673Z,10.51
2018-04-26T06:09:44.802Z,10.56
2018-04-26T06:12:12.931Z,10.77
2018-04-26T06:14:41.165Z,10.89
2018-04-26T06:17:09.322Z,11.08
2018-04-26T06:19:37.400Z,10.94
2018-04-26T06:22:05.565Z,10.65
2018-04-26T06:24:33.671Z,10.81
2018-04-26T06:27:01.799Z,10.53
2018-04-26T06:29:29.999Z,10.75
2018-04-26T06:31:58.124Z,10.92
2018-04-26T06:34:26.269Z,11.11
2018-04-26T06:36:54.451Z,10.93
2018-04-26T06:39:22.554Z,10.90
2018-04-26T06:41:50.705Z,11.22
2018-04-26T06:44:18.919Z,11.25
2018-04-26T06:46:47.039Z,11.15
2018-04-26T06:49:15.177Z,11.46
2018-04-26T06:51:43.313Z,11.52
2018-04-26T06:54:11.457Z,10.83
2018-04-26T06:56:39.574Z,11.27
2018-04-26T06:59:07.729Z,11.29
2018-04-26T07:01:35.841Z,11.10
2018-04-26T07:04:04.122Z,11.02
2018-04-26T07:06:32.267Z,11.12
2018-04-26T07:09:00.380Z,11.29
2018-04-26T07:11:28.502Z,11.55
2018-04-26T07:13:56.654Z,11.00
2018-04-26T07:16:24.791Z,11.33
2018-04-26T07:18:52.941Z,11.49
2018-04-26T07:21:21.095Z,11.30
2018-04-26T07:23:49.223Z,11.39
2018-04-26T07:26:17.343Z,11.31
2018-04-26T07:28:45.511Z,11.26
2018-04-26T07:31:13.654Z,11.32
2018-04-26T07:33:41.787Z,11.36
2018-04-26T07:36:09.945Z,11.50
2018-04-26T07:38:38.094Z,11.40
2018-04-26T07:41:06.238Z,11.58
2018-04-26T07:43:34.389Z,11.60
2018-04-26T07:46:02.504Z,11.61
2018-04-26T07:48:30.632Z,11.61
2018-04-26T07:50:58.777Z,11.99
2018-04-26T07:53:26.896Z,12.23
2018-04-26T07:55:55.021Z,12.03
2018-04-26T07:58:23.169Z,12.19
2018-04-26T08:00:51.322Z,11.96
2018-04-26T08:03:19.486Z,12.22
2018-04-26T08:05:47.649Z,12.17
2018-04-26T08:08:15.777Z,12.28
2018-04-26T08:10:43.931Z,12.30
2018-04-26T08:13:12.164Z,12.27
2018-04-26T08:15:40.284Z,12.42
2018-04-26T08:18:09.288Z,12.17
2018-04-26T08:20:37.418Z,12.25
2018-04-26T08:23:05.568Z,12.18
2018-04-26T08:25:33.681Z,12.30
2018-04-26T08:28:01.825Z,12.45
2018-04-26T08:30:29.961Z,12.39
2018-04-26T08:32:58.270Z,12.61
2018-04-26T08:35:26.415Z,12.81
2018-04-26T08:37:54.581Z,12.80
2018-04-26T08:40:22.736Z,12.84
2018-04-26T08:42:50.876Z,12.66
2018-04-26T08:45:19.018Z,12.91
2018-04-26T08:47:47.147Z,13.02
2018-04-26T08:50:15.283Z,13.01
2018-04-26T08:52:43.433Z,12.93
2018-04-26T08:55:11.563Z,12.97
2018-04-26T08:57:39.696Z,12.95
2018-04-26T09:00:07.834Z,13.04
2018-04-26T09:02:35.975Z,12.71
2018-04-26T09:05:04.115Z,12.66
2018-04-26T09:07:32.255Z,12.94
2018-04-26T09:10:00.392Z,13.06
2018-04-26T09:12:28.602Z,13.06
2018-04-26T09:14:56.731Z,12.99
2018-04-26T09:17:25.356Z,13.08
2018-04-26T09:19:53.499Z,12.99
2018-04-26T09:22:22.217Z,12.79
2018-04-26T09:24:50.350Z,12.92
2018-04-26T09:27:18.516Z,13.30
2018-04-26T09:29:46.639Z,13.52
2018-04-26T09:32:14.792Z,13.56
2018-04-26T09:34:42.934Z,13.50
2018-04-26T09:37:11.062Z,13.45
2018-04-26T09:39:39.272Z,13.40
2018-04-26T09:42:07.617Z,13.40
2018-04-26T09:44:35.757Z,13.44
2018-04-26T09:47:03.883Z,13.53
2018-04-26T09:49:32.013Z,13.76
2018-04-26T09:52:00.168Z,13.71
2018-04-26T09:54:28.284Z,13.86
2018-04-26T09:56:56.437Z,13.48
2018-04-26T09:59:24.561Z,13.34
2018-04-26T10:01:58.252Z,13.48
2018-04-26T10:04:26.432Z,13.57
2018-04-26T10:06:59.552Z,13.59
2018-04-26T10:09:27.686Z,13.66
2018-04-26T10:11:55.818Z,13.61
2018-04-26T10:14:23.963Z,13.61
2018-04-26T10:16:52.096Z,13.82
2018-04-26T10:19:20.234Z,13.91
2018-04-26T10:21:48.356Z,13.99
2018-04-26T10:24:16.482Z,13.84
2018-04-26T10:26:44.594Z,13.63
2018-04-26T10:29:12.765Z,13.73
2018-04-26T10:31:40.889Z,13.69
2018-04-26T10:34:09.036Z,13.74
2018-04-26T10:36:37.162Z,13.75
2018-04-26T10:39:05.282Z,13.81
2018-04-26T10:41:33.406Z,13.89
2018-04-26T10:44:01.549Z,13.90
2018-04-26T10:46:29.692Z,13.84
2018-04-26T10:48:57.804Z,13.90
2018-04-26T10:51:25.936Z,13.97
2018-04-26T10:53:54.056Z,14.03
2018-04-26T10:56:22.195Z,13.86
2018-04-26T10:58:50.324Z,13.84
2018-04-26T11:01:18.448Z,13.76
2018-04-26T11:03:46.600Z,14.07
2018-04-26T11:06:14.767Z,14.34
2018-04-26T11:08:42.898Z,14.11
2018-04-26T11:11:11.076Z,14.21
2018-04-26T11:13:39.179Z,14.41
2018-04-26T11:16:07.293Z,14.43
2018-04-26T11:18:35.432Z,14.51
2018-04-26T11:21:03.586Z,14.42
2018-04-26T11:23:31.726Z,14.72
2018-04-26T11:25:59.910Z,14.84
2018-04-26T11:28:28.068Z,14.94
2018-04-26T11:30:56.243Z,15.06
2018-04-26T11:33:24.339Z,15.00
2018-04-26T11:35:52.480Z,15.12
2018-04-26T11:38:20.599Z,15.15
2018-04-26T11:40:48.727Z,15.20
2018-04-26T11:43:16.861Z,15.46
2018-04-26T11:45:44.996Z,15.72
2018-04-26T11:48:13.138Z,15.50
2018-04-26T11:50:41.270Z,15.13
2018-04-26T11:53:09.478Z,14.97
2018-04-26T11:55:37.618Z,14.84
2018-04-26T11:58:05.743Z,14.78
2018-04-26T12:00:33.879Z,14.59
2018-04-26T12:03:02.007Z,14.62
2018-04-26T12:05:30.156Z,14.40
2018-04-26T12:07:58.274Z,14.56
2018-04-26T12:10:26.390Z,14.82
2018-04-26T12:12:54.549Z,15.22
2018-04-26T12:15:22.684Z,15.72
2018-04-26T12:17:50.801Z,15.43
2018-04-26T12:20:18.937Z,15.25
2018-04-26T12:22:47.084Z,15.06
2018-04-26T12:25:15.198Z,14.84
2018-04-26T12:27:43.358Z,14.87
2018-04-26T12:30:11.486Z,14.76
2018-04-26T12:32:39.689Z,14.62
2018-04-26T12:35:07.988Z,14.69
2018-04-26T12:37:35.954Z,15.18
2018-04-26T12:40:04.091Z,15.48
2018-04-26T12:42:32.261Z,15.83
2018-04-26T12:45:00.384Z,16.03
2018-04-26T12:47:28.513Z,16.05
2018-04-26T12:49:56.672Z,15.77
2018-04-26T12:52:24.814Z,15.81
2018-04-26T12:54:52.920Z,15.46
2018-04-26T12:57:21.529Z,15.48
2018-04-26T12:59:49.677Z,15.58
2018-04-26T13:02:17.820Z,15.58
2018-04-26T13:04:45.959Z,15.67
2018-04-26T13:07:14.072Z,15.54
2018-04-26T13:09:42.195Z,15.32
2018-04-26T13:12:10.344Z,14.89
2018-04-26T13:14:38.496Z,14.19
2018-04-26T13:17:06.645Z,13.72
2018-04-26T13:19:34.760Z,13.13
2018-04-26T13:22:02.884Z,12.81
2018-04-26T13:24:31.084Z,13.10
2018-04-26T13:26:59.203Z,13.22
2018-04-26T13:29:27.339Z,13.50
2018-04-26T13:31:55.476Z,13.91
2018-04-26T13:34:23.609Z,14.37
2018-04-26T13:36:52.556Z,14.45
2018-04-26T13:39:20.687Z,14.05
2018-04-26T13:41:48.803Z,14.42
2018-04-26T13:44:16.945Z,14.57
2018-04-26T13:46:45.066Z,14.88
2018-04-26T13:49:13.196Z,14.97
2018-04-26T13:51:41.327Z,14.66
2018-04-26T13:54:09.464Z,14.98
2018-04-26T13:56:37.587Z,15.09
2018-04-26T13:59:05.712Z,14.89
2018-04-26T14:01:33.835Z,15.13
2018-04-26T14:04:01.993Z,15.39
2018-04-26T14:06:30.097Z,15.24
2018-04-26T14:08:58.240Z,15.26
2018-04-26T14:11:26.362Z,15.06
2018-04-26T14:13:54.472Z,14.83
2018-04-26T14:16:22.588Z,14.89
2018-04-26T14:18:50.730Z,14.87
2018-04-26T14:21:18.858Z,14.69
2018-04-26T14:23:46.980Z,14.81
2018-04-26T14:26:15.141Z,14.85
2018-04-26T14:28:43.266Z,14.56
2018-04-26T14:31:11.383Z,14.30
2018-04-26T14:33:39.532Z,14.30
2018-04-26T14:36:07.651Z,14.45
2018-04-26T14:38:35.765Z,14.62
2018-04-26T14:41:03.887Z,15.01
2018-04-26T14:43:32.031Z,15.06
2018-04-26T14:46:00.120Z,15.14
2018-04-26T14:48:28.264Z,15.07
2018-04-26T14:50:56.400Z,15.15
2018-04-26T14:53:24.605Z,15.04
2018-04-26T14:55:52.815Z,14.85
2018-04-26T14:58:20.928Z,14.57
2018-04-26T15:00:49.055Z,14.37
2018-04-26T15:03:17.212Z,14.04
2018-04-26T15:05:45.326Z,13.90
2018-04-26T15:08:13.454Z,13.76
2018-04-26T15:10:41.598Z,13.79
2018-04-26T15:13:09.710Z,13.81
2018-04-26T15:15:37.816Z,13.90
2018-04-26T15:18:06.037Z,13.97
2018-04-26T15:20:34.181Z,14.12
2018-04-26T15:23:02.313Z,14.05
2018-04-26T15:25:30.469Z,14.15
2018-04-26T15:27:58.663Z,14.08
2018-04-26T15:30:26.783Z,13.62
2018-04-26T15:32:54.950Z,13.53
2018-04-26T15:35:23.076Z,13.56
2018-04-26T15:37:51.204Z,13.87
2018-04-26T15:40:19.344Z,14.39
2018-04-26T15:42:47.466Z,14.44
2018-04-26T15:45:15.597Z,14.31
2018-04-26T15:47:43.724Z,14.36
2018-04-26T15:50:11.885Z,14.25
2018-04-26T15:52:57.586Z,14.16
2018-04-26T15:55:37.631Z,14.28
2018-04-26T16:01:34.114Z,14.23
2018-04-26T16:04:13.996Z,14.11
2018-04-26T16:06:53.865Z,14.21
2018-04-26T16:09:34.154Z,14.33
2018-04-26T16:15:32.253Z,14.92
2018-04-26T16:18:18.044Z,14.96
2018-04-26T16:24:26.783Z,15.08
2018-04-26T16:27:12.663Z,15.02
2018-04-26T16:29:52.620Z,14.97
2018-04-26T16:32:39.208Z,15.01
2018-04-26T16:35:21.084Z,15.22
2018-04-26T16:38:06.871Z,15.30
2018-04-26T16:40:35.071Z,15.40
2018-04-26T16:43:03.277Z,15.15
2018-04-26T16:45:31.491Z,15.26
2018-04-26T16:47:59.636Z,15.26
2018-04-26T16:50:27.766Z,15.15
2018-04-26T16:52:55.930Z,15.02
2018-04-26T16:55:24.230Z,14.91
2018-04-26T16:57:52.358Z,15.02
2018-04-26T17:00:20.484Z,14.99
2018-04-26T17:02:48.596Z,14.90
2018-04-26T17:05:16.720Z,14.88
2018-04-26T17:07:44.856Z,14.73
2018-04-26T17:10:12.961Z,14.78
2018-04-26T17:12:41.105Z,14.72
2018-04-26T17:15:09.253Z,14.71
2018-04-26T17:17:37.375Z,14.79
2018-04-26T17:20:05.498Z,14.67
2018-04-26T17:22:33.625Z,14.43
2018-04-26T17:25:01.743Z,14.24
2018-04-26T17:27:29.848Z,14.47
2018-04-26T17:29:58.029Z,14.57
2018-04-26T17:32:26.146Z,14.53
2018-04-26T17:34:54.281Z,14.53
2018-04-26T17:37:22.407Z,14.45
2018-04-26T17:39:50.512Z,14.51
2018-04-26T17:42:18.706Z,14.49
2018-04-26T17:44:46.770Z,14.55
2018-04-26T17:47:14.876Z,14.59
2018-04-26T17:49:43.000Z,14.64
2018-04-26T17:52:13.033Z,14.40
2018-04-26T17:54:41.158Z,14.32
2018-04-26T17:57:09.270Z,14.55
2018-04-26T17:59:37.408Z,14.51
2018-04-26T18:02:05.528Z,14.57
2018-04-26T18:04:33.637Z,14.43
2018-04-26T18:07:01.783Z,14.23
2018-04-26T18:09:29.943Z,14.16
2018-04-26T18:11:58.043Z,14.28
2018-04-26T18:14:26.182Z,14.27
2018-04-26T18:16:54.302Z,14.14
2018-04-26T18:19:22.441Z,13.82
2018-04-26T18:21:50.589Z,13.88
2018-04-26T18:24:18.716Z,13.85
2018-04-26T18:26:46.839Z,14.09
2018-04-26T18:29:14.985Z,14.11
2018-04-26T18:31:43.107Z,13.98
2018-04-26T18:34:11.226Z,13.68
2018-04-26T18:36:39.377Z,13.86
2018-04-26T18:39:07.500Z,13.89
2018-04-26T18:41:35.632Z,13.97
2018-04-26T18:44:03.770Z,14.07
2018-04-26T18:46:31.947Z,13.89
2018-04-26T18:49:00.006Z,13.90
2018-04-26T18:51:28.133Z,13.86
2018-04-26T18:53:56.255Z,13.85
2018-04-26T18:56:24.364Z,13.88
2018-04-26T18:58:52.502Z,13.87
2018-04-26T19:01:20.627Z,13.87
2018-04-26T19:03:48.736Z,13.83
2018-04-26T19:06:16.878Z,13.74
2018-04-26T19:08:45.024Z,13.74
2018-04-26T19:11:13.161Z,13.76
2018-04-26T19:13:41.321Z,13.70
2018-04-26T19:16:09.468Z,13.67
2018-04-26T19:18:37.597Z,13.46
2018-04-26T19:21:05.850Z,13.51
2018-04-26T19:23:34.042Z,13.60
2018-04-26T19:26:02.164Z,13.52
2018-04-26T19:28:30.313Z,13.51
2018-04-26T19:30:58.420Z,13.48
2018-04-26T19:33:26.552Z,13.48
2018-04-26T19:35:54.686Z,13.34
2018-04-26T19:38:22.828Z,13.33
2018-04-26T19:40:50.951Z,13.21
2018-04-26T19:43:19.101Z,13.13
2018-04-26T19:45:47.233Z,13.22
2018-04-26T19:48:15.340Z,13.27
2018-04-26T19:50:43.468Z,13.16
2018-04-26T19:53:11.594Z,13.13
2018-04-26T19:55:39.732Z,13.06
2018-04-26T19:58:07.852Z,13.03
2018-04-26T20:00:35.965Z,13.07
2018-04-26T20:03:04.111Z,12.84
2018-04-26T20:05:32.257Z,12.74
2018-04-26T20:08:00.377Z,12.57
2018-04-26T20:10:31.978Z,12.49
2018-04-26T20:13:00.103Z,12.61
2018-04-26T20:15:28.223Z,12.66
2018-04-26T20:17:56.335Z,12.66
2018-04-26T20:20:24.479Z,12.65
2018-04-26T20:22:52.645Z,12.62
2018-04-26T20:25:20.786Z,12.61
2018-04-26T20:27:48.921Z,12.63
2018-04-26T20:30:17.042Z,12.28
2018-04-26T20:32:45.185Z,12.37
2018-04-26T20:35:13.328Z,12.25
2018-04-26T20:37:41.436Z,12.14
2018-04-26T20:40:09.585Z,12.09
2018-04-26T20:42:37.737Z,12.20
2018-04-26T20:45:05.870Z,12.21
2018-04-26T20:47:33.991Z,12.22
2018-04-26T20:50:02.438Z,12.24
2018-04-26T20:52:30.623Z,12.07
2018-04-26T20:54:58.800Z,12.12
2018-04-26T20:57:27.020Z,12.24
2018-04-26T20:59:55.142Z,12.17
2018-04-26T21:02:23.434Z,11.99
2018-04-26T21:04:51.582Z,11.93
2018-04-26T21:07:19.759Z,11.95
2018-04-26T21:09:48.001Z,12.05
2018-04-26T21:12:16.223Z,12.05
2018-04-26T21:14:44.420Z,12.02
2018-04-26T21:17:12.626Z,11.92
2018-04-26T21:19:40.821Z,11.90
2018-04-26T21:22:09.018Z,11.84
2018-04-26T21:24:37.196Z,11.60
2018-04-26T21:27:05.674Z,11.61
2018-04-26T21:29:33.854Z,11.63
2018-04-26T21:32:02.039Z,11.59
2018-04-26T21:34:30.227Z,11.72
2018-04-26T21:36:58.406Z,11.52
2018-04-26T21:39:26.618Z,11.50
2018-04-26T21:41:54.822Z,11.41
2018-04-26T21:44:22.993Z,11.56
2018-04-26T21:46:51.164Z,11.40
2018-04-26T21:49:18.812Z,11.38
2018-04-26T21:51:52.645Z,11.29
2018-04-26T21:54:26.428Z,11.38
2018-04-26T21:57:00.273Z,11.22
2018-04-26T21:59:34.014Z,11.35
2018-04-26T22:02:07.751Z,11.26
2018-04-26T22:04:53.723Z,11.20
2018-04-26T22:07:21.910Z,11.16
2018-04-26T22:09:50.098Z,11.33
2018-04-26T22:12:18.482Z,11.37
2018-04-26T22:14:47.004Z,11.32
2018-04-26T22:17:15.226Z,11.33
2018-04-26T22:19:43.482Z,11.20
2018-04-26T22:22:14.602Z,11.17
2018-04-26T22:24:42.871Z,11.10
2018-04-26T22:27:11.119Z,11.02
2018-04-26T22:29:39.308Z,11.00
2018-04-26T22:32:07.526Z,10.89
2018-04-26T22:34:35.730Z,10.83
2018-04-26T22:37:03.919Z,11.00
2018-04-26T22:39:32.138Z,11.04
2018-04-26T22:42:00.426Z,11.04
2018-04-26T22:44:28.731Z,11.13
2018-04-26T22:46:56.983Z,11.15
2018-04-26T22:49:25.191Z,11.21
2018-04-26T22:51:53.404Z,11.13
2018-04-26T22:54:21.590Z,11.15
2018-04-26T22:56:49.835Z,11.08
2018-04-26T22:59:18.034Z,11.01
2018-04-26T23:01:46.226Z,10.83
2018-04-26T23:04:14.483Z,10.97
2018-04-26T23:06:42.720Z,10.61
2018-04-26T23:09:10.912Z,10.66
2018-04-26T23:11:39.146Z,10.63
2018-04-26T23:14:07.340Z,10.68
2018-04-26T23:16:35.531Z,10.68
2018-04-26T23:19:03.770Z,10.68
2018-04-26T23:21:31.950Z,10.70
2018-04-26T23:24:00.115Z,10.74
2018-04-26T23:26:28.315Z,10.67
2018-04-26T23:28:56.480Z,10.64
2018-04-26T23:31:24.671Z,10.62
2018-04-26T23:33:52.882Z,10.75
2018-04-26T23:36:21.074Z,10.69
2018-04-26T23:38:49.284Z,10.65
2018-04-26T23:41:17.522Z,10.71
2018-04-26T23:43:48.975Z,10.64
2018-04-26T23:46:17.138Z,10.62
2018-04-26T23:48:45.338Z,10.68
2018-04-26T23:51:13.519Z,10.59
2018-04-26T23:53:41.702Z,10.50
2018-04-26T23:56:09.875Z,10.43
2018-04-26T23:58:38.046Z,10.34
